createdAt,value
2023-01-25T00:00:00.899Z,4.68
2023-01-25T00:02:30.693Z,4.67
2023-01-25T00:05:01.148Z,4.70
2023-01-25T00:07:28.168Z,4.72
2023-01-25T00:09:55.558Z,4.75
2023-01-25T00:12:22.654Z,4.75
2023-01-25T00:14:51.274Z,4.84
2023-01-25T00:17:18.215Z,4.84
2023-01-25T00:19:45.640Z,4.82
2023-01-25T00:22:12.453Z,4.73
2023-01-25T00:24:39.709Z,4.73
2023-01-25T00:27:07.930Z,4.79
2023-01-25T00:29:37.234Z,4.83
2023-01-25T00:32:42.755Z,4.86
2023-01-25T00:35:12.427Z,4.88
2023-01-25T00:37:42.209Z,4.87
2023-01-25T00:40:11.817Z,4.89
2023-01-25T00:42:38.773Z,4.86
2023-01-25T00:45:07.462Z,4.89
2023-01-25T00:47:35.929Z,4.87
2023-01-25T00:50:03.411Z,4.84
2023-01-25T00:52:30.305Z,4.86
2023-01-25T00:54:57.526Z,4.82
2023-01-25T00:57:24.473Z,4.84
2023-01-25T00:59:51.721Z,4.85
2023-01-25T01:02:18.762Z,4.85
2023-01-25T01:04:48.651Z,4.75
2023-01-25T01:07:15.822Z,4.76
2023-01-25T01:09:43.101Z,4.72
2023-01-25T01:12:10.322Z,4.67
2023-01-25T01:14:37.973Z,4.72
2023-01-25T01:17:05.024Z,4.65
2023-01-25T01:19:32.362Z,4.85
2023-01-25T01:22:00.810Z,4.86
2023-01-25T01:24:28.306Z,4.87
2023-01-25T01:26:55.331Z,4.92
2023-01-25T01:29:22.698Z,4.93
2023-01-25T01:31:51.328Z,4.86
2023-01-25T01:34:19.024Z,4.82
2023-01-25T01:36:46.101Z,4.84
2023-01-25T01:39:14.778Z,4.79
2023-01-25T01:41:41.704Z,4.85
2023-01-25T01:44:16.580Z,4.85
2023-01-25T01:46:52.846Z,4.84
2023-01-25T01:49:24.136Z,4.87
2023-01-25T01:51:55.859Z,4.87
2023-01-25T01:54:28.989Z,4.91
2023-01-25T01:57:01.351Z,4.92
2023-01-25T01:59:34.534Z,4.92
2023-01-25T02:02:01.774Z,4.96
2023-01-25T02:04:30.130Z,4.99
2023-01-25T02:07:03.142Z,4.97
2023-01-25T02:09:33.962Z,5.00
2023-01-25T02:12:01.305Z,4.99
2023-01-25T02:14:29.944Z,4.95
2023-01-25T02:16:57.608Z,4.99
2023-01-25T02:19:36.857Z,4.99
2023-01-25T02:22:10.164Z,4.94
2023-01-25T02:24:46.650Z,4.89
2023-01-25T02:27:15.245Z,4.92
2023-01-25T02:29:43.121Z,4.94
2023-01-25T02:32:10.126Z,4.95
2023-01-25T02:34:37.666Z,4.96
2023-01-25T02:37:04.691Z,4.96
2023-01-25T02:39:31.943Z,4.95
2023-01-25T02:41:58.910Z,4.94
2023-01-25T02:44:31.334Z,4.92
2023-01-25T02:46:59.771Z,4.91
2023-01-25T02:49:27.009Z,4.88
2023-01-25T02:51:57.335Z,4.87
2023-01-25T02:54:26.237Z,4.87
2023-01-25T02:56:53.352Z,4.90
2023-01-25T02:59:20.838Z,4.90
2023-01-25T03:01:49.816Z,4.94
2023-01-25T03:04:17.054Z,4.91
2023-01-25T03:06:44.024Z,4.95
2023-01-25T03:09:11.986Z,4.95
2023-01-25T03:11:39.024Z,4.96
2023-01-25T03:14:06.627Z,4.95
2023-01-25T03:16:33.930Z,4.92
2023-01-25T03:19:02.467Z,4.92
2023-01-25T03:21:29.577Z,4.89
2023-01-25T03:23:58.800Z,4.89
2023-01-25T03:26:27.110Z,4.90
2023-01-25T03:28:54.379Z,4.87
2023-01-25T03:31:21.572Z,4.81
2023-01-25T03:33:49.848Z,4.85
2023-01-25T03:36:18.519Z,4.85
2023-01-25T03:38:45.793Z,4.83
2023-01-25T03:41:13.956Z,4.82
2023-01-25T03:43:41.137Z,4.83
2023-01-25T03:46:08.312Z,4.84
2023-01-25T03:48:35.523Z,4.86
2023-01-25T03:51:02.563Z,4.85
2023-01-25T03:53:32.128Z,4.87
2023-01-25T03:56:01.303Z,4.90
2023-01-25T03:58:29.756Z,4.89
2023-01-25T04:00:58.727Z,4.72
2023-01-25T04:03:26.703Z,4.57
2023-01-25T04:05:56.107Z,4.59
2023-01-25T04:08:24.697Z,4.63
2023-01-25T04:10:54.794Z,4.68
2023-01-25T04:13:24.048Z,4.67
2023-01-25T04:15:51.679Z,4.52
2023-01-25T04:18:19.454Z,4.43
2023-01-25T04:20:46.419Z,4.43
2023-01-25T04:23:13.685Z,4.50
2023-01-25T04:25:40.649Z,4.49
2023-01-25T04:28:09.206Z,4.52
2023-01-25T04:30:36.190Z,4.58
2023-01-25T04:33:04.653Z,4.61
2023-01-25T04:35:31.925Z,4.69
2023-01-25T04:38:00.126Z,4.76
2023-01-25T04:40:27.452Z,4.78
2023-01-25T04:42:54.743Z,4.76
2023-01-25T04:45:23.073Z,4.78
2023-01-25T04:47:56.645Z,4.69
2023-01-25T04:50:23.694Z,4.56
2023-01-25T04:52:51.293Z,4.46
2023-01-25T04:55:18.389Z,4.42
2023-01-25T04:57:45.956Z,4.44
2023-01-25T05:00:14.422Z,4.55
2023-01-25T05:02:43.005Z,4.65
2023-01-25T05:05:10.463Z,4.71
2023-01-25T05:07:38.156Z,4.61
2023-01-25T05:10:06.640Z,4.79
2023-01-25T05:12:33.952Z,4.82
2023-01-25T05:15:00.886Z,4.80
2023-01-25T05:17:28.323Z,4.78
2023-01-25T05:19:56.630Z,4.79
2023-01-25T05:22:23.991Z,4.74
2023-01-25T05:24:51.149Z,4.76
2023-01-25T05:27:20.379Z,4.72
2023-01-25T05:29:47.755Z,4.73
2023-01-25T05:32:16.602Z,4.75
2023-01-25T05:34:44.706Z,4.73
2023-01-25T05:37:14.979Z,4.73
2023-01-25T05:39:42.003Z,4.78
2023-01-25T05:42:12.062Z,4.59
2023-01-25T05:44:39.120Z,4.40
2023-01-25T05:47:06.583Z,4.17
2023-01-25T05:49:33.465Z,4.33
2023-01-25T05:52:00.815Z,4.43
2023-01-25T05:54:29.479Z,4.50
2023-01-25T05:56:59.705Z,4.61
2023-01-25T05:59:26.626Z,4.66
2023-01-25T06:01:53.983Z,4.66
2023-01-25T06:04:20.891Z,4.70
2023-01-25T06:06:48.151Z,4.71
2023-01-25T06:09:15.532Z,4.71
2023-01-25T06:11:47.604Z,4.72
2023-01-25T06:14:15.234Z,4.82
2023-01-25T06:16:42.476Z,4.67
2023-01-25T06:19:09.588Z,4.61
2023-01-25T06:21:38.571Z,4.69
2023-01-25T06:24:06.413Z,4.67
2023-01-25T06:26:34.479Z,4.70
2023-01-25T06:29:05.090Z,4.06
2023-01-25T06:31:32.436Z,3.61
2023-01-25T06:34:01.101Z,3.42
2023-01-25T06:36:28.474Z,3.62
2023-01-25T06:38:55.411Z,3.84
2023-01-25T06:41:23.185Z,4.04
2023-01-25T06:43:51.374Z,3.84
2023-01-25T06:46:20.296Z,3.38
2023-01-25T06:48:48.506Z,2.90
2023-01-25T06:51:17.257Z,2.60
2023-01-25T06:53:45.884Z,2.44
2023-01-25T06:56:14.828Z,2.30
2023-01-25T06:58:41.823Z,2.10
2023-01-25T07:01:13.446Z,2.04
2023-01-25T07:03:42.206Z,2.00
2023-01-25T07:06:11.117Z,2.09
2023-01-25T07:08:39.731Z,2.39
2023-01-25T07:11:12.196Z,2.41
2023-01-25T07:13:40.201Z,2.50
2023-01-25T07:16:10.948Z,2.83
2023-01-25T07:18:38.118Z,3.21
2023-01-25T07:21:08.957Z,3.47
2023-01-25T07:23:37.967Z,3.64
2023-01-25T07:26:06.147Z,3.81
2023-01-25T07:28:33.774Z,3.97
2023-01-25T07:31:05.900Z,3.94
2023-01-25T07:33:33.035Z,3.95
2023-01-25T07:36:00.622Z,3.91
2023-01-25T07:38:30.428Z,3.91
2023-01-25T07:40:57.793Z,4.09
2023-01-25T07:43:25.309Z,4.22
2023-01-25T07:45:52.538Z,4.23
2023-01-25T07:48:20.938Z,4.25
2023-01-25T07:50:49.702Z,4.31
2023-01-25T07:53:19.408Z,4.36
2023-01-25T07:55:48.768Z,4.27
2023-01-25T07:58:17.849Z,4.25
2023-01-25T08:00:45.485Z,4.21
2023-01-25T08:03:14.526Z,4.14
2023-01-25T08:05:44.558Z,4.17
2023-01-25T08:08:11.582Z,4.20
2023-01-25T08:10:39.000Z,4.13
2023-01-25T08:13:07.691Z,4.19
2023-01-25T08:15:35.132Z,4.15
2023-01-25T08:18:02.121Z,4.04
2023-01-25T08:20:29.397Z,4.03
2023-01-25T08:22:56.569Z,4.06
2023-01-25T08:25:23.862Z,4.16
2023-01-25T08:27:52.224Z,4.14
2023-01-25T08:30:21.073Z,4.13
2023-01-25T08:32:48.044Z,4.20
2023-01-25T08:35:15.508Z,4.24
2023-01-25T08:37:42.419Z,4.30
2023-01-25T08:40:13.810Z,4.37
2023-01-25T08:42:43.132Z,4.38
2023-01-25T08:45:11.288Z,4.41
2023-01-25T08:47:39.897Z,4.57
2023-01-25T08:50:08.522Z,4.58
2023-01-25T08:52:35.750Z,4.52
2023-01-25T08:55:03.159Z,4.53
2023-01-25T08:57:31.942Z,4.57
2023-01-25T08:59:59.863Z,4.51
2023-01-25T09:02:26.746Z,4.44
2023-01-25T09:04:55.332Z,4.43
2023-01-25T09:07:22.329Z,4.47
2023-01-25T09:09:49.547Z,4.59
2023-01-25T09:12:16.520Z,4.70
2023-01-25T09:14:43.890Z,4.69
2023-01-25T09:17:10.791Z,4.65
2023-01-25T09:19:38.077Z,4.62
2023-01-25T09:22:06.460Z,4.55
2023-01-25T09:24:36.997Z,4.68
2023-01-25T09:27:04.192Z,4.89
2023-01-25T09:29:31.536Z,4.86
2023-01-25T09:31:58.801Z,4.81
2023-01-25T09:34:26.471Z,4.79
2023-01-25T09:36:53.499Z,4.93
2023-01-25T09:39:22.359Z,5.07
2023-01-25T09:42:21.577Z,5.17
2023-01-25T09:45:04.801Z,5.31
2023-01-25T09:47:40.475Z,5.10
2023-01-25T09:50:33.233Z,4.44
2023-01-25T09:53:22.354Z,3.80
2023-01-25T09:55:55.575Z,3.58
2023-01-25T09:58:28.337Z,3.25
2023-01-25T10:01:09.669Z,3.02
2023-01-25T10:03:48.336Z,2.76
2023-01-25T10:06:17.665Z,2.72
2023-01-25T10:08:52.920Z,2.68
2023-01-25T10:11:25.977Z,2.76
2023-01-25T10:13:56.337Z,2.99
2023-01-25T10:16:29.996Z,2.99
2023-01-25T10:19:19.907Z,3.00
2023-01-25T10:21:53.762Z,2.88
2023-01-25T10:24:43.739Z,3.11
2023-01-25T10:27:29.389Z,3.07
2023-01-25T10:30:00.136Z,3.54
2023-01-25T10:32:31.900Z,3.90
2023-01-25T10:35:10.518Z,3.56
2023-01-25T10:37:39.061Z,3.76
2023-01-25T10:40:17.747Z,4.14
2023-01-25T10:42:51.566Z,4.39
2023-01-25T10:45:20.941Z,4.61
2023-01-25T10:47:52.705Z,4.86
2023-01-25T10:50:47.638Z,5.18
2023-01-25T10:53:27.101Z,5.37
2023-01-25T10:56:05.737Z,5.36
2023-01-25T10:58:36.593Z,5.34
2023-01-25T11:01:07.119Z,5.31
2023-01-25T11:03:37.228Z,5.43
2023-01-25T11:06:04.969Z,5.63
2023-01-25T11:08:37.597Z,5.75
2023-01-25T11:11:25.553Z,5.90
2023-01-25T11:13:55.368Z,6.04
2023-01-25T11:16:41.648Z,5.94
2023-01-25T11:19:29.261Z,5.94
2023-01-25T11:21:58.622Z,5.97
2023-01-25T11:24:28.102Z,5.82
2023-01-25T11:27:14.586Z,5.83
2023-01-25T11:29:43.188Z,5.83
2023-01-25T11:32:20.412Z,5.78
2023-01-25T11:34:48.923Z,5.68
2023-01-25T11:37:29.228Z,5.79
2023-01-25T11:40:07.939Z,5.91
2023-01-25T11:42:43.594Z,6.03
2023-01-25T11:45:45.719Z,6.14
2023-01-25T11:48:26.909Z,6.04
2023-01-25T11:51:02.464Z,5.93
2023-01-25T11:54:09.494Z,5.82
2023-01-25T11:56:48.615Z,5.74
2023-01-25T11:59:36.391Z,5.82
2023-01-25T12:02:24.849Z,5.69
2023-01-25T12:05:21.911Z,5.43
2023-01-25T12:07:59.073Z,5.43
2023-01-25T12:10:34.304Z,5.53
2023-01-25T12:13:09.589Z,5.68
2023-01-25T12:15:55.837Z,5.60
2023-01-25T12:18:45.329Z,5.60
2023-01-25T12:21:31.191Z,5.59
2023-01-25T12:24:15.312Z,5.53
2023-01-25T12:26:54.484Z,5.44
2023-01-25T12:29:26.587Z,5.37
2023-01-25T12:31:58.591Z,5.30
2023-01-25T12:34:33.814Z,5.30
2023-01-25T12:37:08.278Z,5.45
2023-01-25T12:39:42.560Z,5.47
2023-01-25T12:42:17.563Z,5.48
2023-01-25T12:44:49.441Z,5.54
2023-01-25T12:47:22.391Z,5.63
2023-01-25T12:49:55.820Z,5.76
2023-01-25T12:52:31.882Z,5.78
2023-01-25T12:55:01.901Z,5.86
2023-01-25T12:57:36.515Z,5.93
2023-01-25T13:00:17.096Z,5.83
2023-01-25T13:03:04.749Z,5.79
2023-01-25T13:05:39.451Z,5.64
2023-01-25T13:08:30.318Z,5.64
2023-01-25T13:11:10.259Z,5.60
2023-01-25T13:13:37.224Z,5.64
2023-01-25T13:16:23.916Z,5.69
2023-01-25T13:18:50.943Z,5.75
2023-01-25T13:21:40.809Z,5.64
2023-01-25T13:24:20.588Z,5.53
2023-01-25T13:27:03.675Z,5.47
2023-01-25T13:29:59.007Z,5.59
2023-01-25T13:33:03.653Z,5.53
2023-01-25T13:35:42.059Z,5.52
2023-01-25T13:38:35.866Z,5.67
2023-01-25T13:41:17.864Z,5.60
2023-01-25T13:44:08.141Z,5.59
2023-01-25T13:46:35.745Z,5.49
2023-01-25T13:49:08.138Z,5.42
2023-01-25T13:51:39.407Z,5.49
2023-01-25T13:54:16.022Z,5.64
2023-01-25T13:56:43.246Z,5.75
2023-01-25T13:59:24.399Z,5.65
2023-01-25T14:01:52.553Z,5.48
2023-01-25T14:04:19.885Z,5.50
2023-01-25T14:06:47.114Z,5.43
2023-01-25T14:09:17.651Z,5.44
2023-01-25T14:11:49.471Z,5.51
2023-01-25T14:14:20.949Z,5.57
2023-01-25T14:17:02.059Z,5.63
2023-01-25T14:19:30.577Z,5.67
2023-01-25T14:22:13.236Z,5.67
2023-01-25T14:24:42.090Z,5.51
2023-01-25T14:27:14.478Z,5.51
2023-01-25T14:29:42.110Z,5.59
2023-01-25T14:32:16.993Z,5.54
2023-01-25T14:34:44.406Z,5.47
2023-01-25T14:37:16.629Z,5.41
2023-01-25T14:39:46.563Z,5.32
2023-01-25T14:42:13.775Z,5.40
2023-01-25T14:44:45.732Z,5.48
2023-01-25T14:47:23.044Z,5.54
2023-01-25T14:49:50.581Z,5.52
2023-01-25T14:52:19.976Z,5.43
2023-01-25T14:54:52.409Z,5.39
2023-01-25T14:57:33.049Z,5.42
2023-01-25T15:00:03.809Z,5.47
2023-01-25T15:02:38.065Z,5.53
2023-01-25T15:05:16.392Z,5.52
2023-01-25T15:07:45.993Z,5.54
2023-01-25T15:10:23.267Z,5.60
2023-01-25T15:13:04.132Z,5.63
2023-01-25T15:15:35.813Z,5.62
2023-01-25T15:18:03.208Z,5.52
2023-01-25T15:20:36.110Z,5.44
2023-01-25T15:23:22.023Z,5.46
2023-01-25T15:25:54.957Z,5.42
2023-01-25T15:28:23.524Z,5.47
2023-01-25T15:30:51.088Z,5.48
2023-01-25T15:33:22.035Z,5.51
2023-01-25T15:35:50.248Z,5.46
2023-01-25T15:38:17.656Z,5.34
2023-01-25T15:40:45.541Z,5.38
2023-01-25T15:43:14.652Z,5.44
2023-01-25T15:45:43.509Z,5.46
2023-01-25T15:48:17.296Z,5.39
2023-01-25T15:50:44.752Z,5.36
2023-01-25T15:53:15.184Z,5.27
2023-01-25T15:55:44.587Z,5.27
2023-01-25T15:58:18.355Z,5.38
2023-01-25T16:00:45.599Z,5.44
2023-01-25T16:03:13.101Z,5.52
2023-01-25T16:05:40.474Z,5.57
2023-01-25T16:08:15.611Z,5.58
2023-01-25T16:10:43.014Z,5.59
2023-01-25T16:13:10.304Z,5.64
2023-01-25T16:15:40.022Z,5.66
2023-01-25T16:18:07.136Z,5.68
2023-01-25T16:20:34.206Z,5.66
2023-01-25T16:23:01.429Z,5.67
2023-01-25T16:25:28.721Z,5.67
2023-01-25T16:27:55.587Z,5.69
2023-01-25T16:30:25.892Z,5.72
2023-01-25T16:32:54.260Z,5.69
2023-01-25T16:35:21.519Z,5.72
2023-01-25T16:37:48.717Z,5.71
2023-01-25T16:40:23.158Z,5.71
2023-01-25T16:42:50.671Z,5.68
2023-01-25T16:45:19.456Z,5.68
2023-01-25T16:47:47.654Z,5.64
2023-01-25T16:50:18.067Z,5.63
2023-01-25T16:52:46.036Z,5.60
2023-01-25T16:55:14.335Z,5.61
2023-01-25T16:57:43.489Z,5.65
2023-01-25T17:00:13.917Z,5.28
2023-01-25T17:02:56.968Z,4.66
2023-01-25T17:05:33.553Z,3.95
2023-01-25T17:08:00.689Z,3.40
2023-01-25T17:10:29.726Z,3.08
2023-01-25T17:12:56.776Z,3.06
2023-01-25T17:15:24.019Z,3.09
2023-01-25T17:17:50.877Z,3.19
2023-01-25T17:20:18.189Z,3.03
2023-01-25T17:22:50.987Z,2.85
2023-01-25T17:25:18.433Z,2.74
2023-01-25T17:27:45.403Z,2.58
2023-01-25T17:30:13.629Z,2.46
2023-01-25T17:32:40.994Z,2.32
2023-01-25T17:35:08.980Z,2.38
2023-01-25T17:37:35.980Z,2.53
2023-01-25T17:40:05.201Z,2.44
2023-01-25T17:42:33.000Z,2.56
2023-01-25T17:45:00.225Z,2.81
2023-01-25T17:47:27.224Z,2.78
2023-01-25T17:49:54.524Z,2.93
2023-01-25T17:52:21.389Z,3.23
2023-01-25T17:54:48.972Z,3.17
2023-01-25T17:57:23.702Z,2.94
2023-01-25T17:59:51.069Z,3.12
2023-01-25T18:02:18.258Z,3.47
2023-01-25T18:04:45.521Z,3.71
2023-01-25T18:07:13.428Z,3.94
2023-01-25T18:09:43.393Z,4.14
2023-01-25T18:12:12.061Z,4.33
2023-01-25T18:14:43.958Z,4.46
2023-01-25T18:17:12.526Z,4.48
2023-01-25T18:19:39.737Z,4.54
2023-01-25T18:22:06.736Z,4.63
2023-01-25T18:24:35.413Z,4.71
2023-01-25T18:27:05.468Z,4.74
2023-01-25T18:29:55.518Z,4.73
2023-01-25T18:32:22.620Z,4.84
2023-01-25T18:34:49.995Z,4.92
2023-01-25T18:37:25.614Z,4.93
2023-01-25T18:39:54.656Z,4.82
2023-01-25T18:42:23.643Z,4.81
2023-01-25T18:44:50.989Z,4.77
2023-01-25T18:47:21.137Z,4.75
2023-01-25T18:49:50.490Z,4.85
2023-01-25T18:52:18.690Z,4.93
2023-01-25T18:54:46.296Z,5.02
2023-01-25T18:57:13.933Z,5.06
2023-01-25T18:59:42.084Z,4.99
2023-01-25T19:02:11.084Z,5.03
2023-01-25T19:04:40.362Z,5.08
2023-01-25T19:07:07.518Z,5.16
2023-01-25T19:09:34.946Z,5.09
2023-01-25T19:12:02.048Z,5.08
2023-01-25T19:14:30.490Z,5.15
2023-01-25T19:16:57.788Z,5.15
2023-01-25T19:19:25.098Z,5.24
2023-01-25T19:21:53.385Z,5.21
2023-01-25T19:24:21.807Z,5.12
2023-01-25T19:26:48.743Z,5.13
2023-01-25T19:29:16.171Z,5.18
2023-01-25T19:31:43.172Z,5.46
2023-01-25T19:34:10.423Z,5.39
2023-01-25T19:36:43.737Z,5.26
2023-01-25T19:39:14.495Z,5.15
2023-01-25T19:41:43.993Z,5.20
2023-01-25T19:44:13.800Z,5.26
2023-01-25T19:46:41.005Z,5.30
2023-01-25T19:49:10.701Z,5.30
2023-01-25T19:51:41.355Z,5.31
2023-01-25T19:54:11.391Z,5.32
2023-01-25T19:56:40.973Z,5.35
2023-01-25T19:59:11.576Z,5.39
2023-01-25T20:01:44.119Z,5.42
2023-01-25T20:04:13.721Z,5.32
2023-01-25T20:06:40.862Z,5.22
2023-01-25T20:09:08.561Z,5.25
2023-01-25T20:11:35.838Z,5.20
2023-01-25T20:14:06.185Z,5.10
2023-01-25T20:16:34.859Z,5.02
2023-01-25T20:19:02.944Z,4.99
2023-01-25T20:21:31.395Z,4.88
2023-01-25T20:24:02.623Z,4.85
2023-01-25T20:26:32.626Z,4.83
2023-01-25T20:29:00.605Z,4.91
2023-01-25T20:31:30.932Z,4.96
2023-01-25T20:33:59.598Z,4.99
2023-01-25T20:36:30.321Z,4.98
2023-01-25T20:38:57.872Z,5.02
2023-01-25T20:41:25.045Z,5.08
2023-01-25T20:43:54.783Z,4.96
2023-01-25T20:46:22.066Z,4.98
2023-01-25T20:48:52.088Z,4.96
2023-01-25T20:51:21.470Z,4.91
2023-01-25T20:53:50.246Z,4.84
2023-01-25T20:56:18.638Z,4.90
2023-01-25T20:58:50.381Z,4.87
2023-01-25T21:01:20.106Z,4.81
2023-01-25T21:03:48.347Z,4.81
2023-01-25T21:06:17.624Z,4.77
2023-01-25T21:08:44.870Z,4.74
2023-01-25T21:11:13.376Z,4.69
2023-01-25T21:13:41.209Z,4.62
2023-01-25T21:16:12.366Z,4.59
2023-01-25T21:18:41.139Z,4.67
2023-01-25T21:21:10.082Z,4.69
2023-01-25T21:23:39.746Z,4.79
2023-01-25T21:26:08.070Z,4.83
2023-01-25T21:28:35.310Z,4.85
2023-01-25T21:31:07.547Z,4.90
2023-01-25T21:33:35.391Z,4.81
2023-01-25T21:36:02.522Z,4.69
2023-01-25T21:38:29.843Z,4.66
2023-01-25T21:41:02.071Z,4.70
2023-01-25T21:43:29.615Z,4.75
2023-01-25T21:46:13.481Z,4.79
2023-01-25T21:48:59.234Z,4.79
2023-01-25T21:51:40.125Z,4.77
2023-01-25T21:54:07.567Z,4.76
2023-01-25T21:56:35.919Z,4.79
2023-01-25T21:59:03.332Z,4.73
2023-01-25T22:01:30.324Z,4.72
2023-01-25T22:03:57.692Z,4.68
2023-01-25T22:06:24.659Z,4.64
2023-01-25T22:08:52.443Z,4.64
2023-01-25T22:11:19.520Z,4.65
2023-01-25T22:13:48.087Z,4.70
2023-01-25T22:16:15.199Z,4.67
2023-01-25T22:18:43.503Z,4.64
2023-01-25T22:21:15.528Z,4.57
2023-01-25T22:23:42.873Z,4.62
2023-01-25T22:26:11.265Z,4.60
2023-01-25T22:28:45.953Z,4.59
2023-01-25T22:31:15.230Z,4.64
2023-01-25T22:33:45.520Z,4.66
2023-01-25T22:36:14.291Z,4.64
2023-01-25T22:38:41.822Z,4.59
2023-01-25T22:41:09.962Z,4.47
2023-01-25T22:43:37.870Z,4.37
2023-01-25T22:46:06.212Z,4.37
2023-01-25T22:48:35.220Z,4.38
2023-01-25T22:51:02.965Z,4.32
2023-01-25T22:53:30.874Z,4.27
2023-01-25T22:56:02.823Z,4.22
2023-01-25T22:58:30.385Z,4.25
2023-01-25T23:00:57.528Z,4.20
2023-01-25T23:03:24.982Z,4.15
2023-01-25T23:06:00.265Z,4.18
2023-01-25T23:08:30.117Z,4.18
2023-01-25T23:11:00.940Z,4.29
2023-01-25T23:13:28.748Z,4.31
2023-01-25T23:15:56.319Z,4.32
2023-01-25T23:18:42.171Z,4.29
2023-01-25T23:21:10.463Z,4.17
2023-01-25T23:23:37.657Z,4.07
2023-01-25T23:26:04.849Z,4.03
2023-01-25T23:28:32.361Z,4.09
2023-01-25T23:31:21.437Z,4.09
2023-01-25T23:33:50.677Z,4.07
2023-01-25T23:36:20.382Z,4.08
2023-01-25T23:38:48.827Z,3.95
2023-01-25T23:41:16.871Z,3.92
2023-01-25T23:43:44.279Z,3.92
2023-01-25T23:46:14.256Z,3.99
2023-01-25T23:48:42.062Z,4.08
2023-01-25T23:51:11.021Z,4.10
2023-01-25T23:53:39.821Z,4.11
2023-01-25T23:56:08.736Z,4.07
2023-01-25T23:58:36.904Z,4.04
